createdAt,value
2022-10-08T00:00:22.790Z,95674.16
2022-10-08T00:04:05.510Z,95667.69
2022-10-08T00:07:48.260Z,95673.31
2022-10-08T00:11:32.751Z,95661.78
2022-10-08T00:15:15.640Z,95661.41
2022-10-08T00:19:02.174Z,95670.94
2022-10-08T00:22:45.201Z,95657.56
2022-10-08T00:26:29.529Z,95668.06
2022-10-08T00:30:13.694Z,95657.13
2022-10-08T00:33:58.535Z,95665.63
2022-10-08T00:37:42.599Z,95657.91
2022-10-08T00:41:27.482Z,95648.78
2022-10-08T00:45:13.248Z,95649.38
2022-10-08T00:49:03.590Z,95656.06
2022-10-08T00:52:49.989Z,95640.88
2022-10-08T00:56:35.332Z,95647.75
2022-10-08T01:00:22.188Z,95639.25
2022-10-08T01:04:10.657Z,95640.47
2022-10-08T01:07:59.769Z,95632.56
2022-10-08T01:11:48.410Z,95631.56
2022-10-08T01:15:36.334Z,95629.94
2022-10-08T01:19:38.320Z,95628.72
2022-10-08T01:23:40.800Z,95625.28
2022-10-08T01:27:29.787Z,95613.53
2022-10-08T01:31:16.225Z,95614.34
2022-10-08T01:35:01.389Z,95623.25
2022-10-08T01:38:47.512Z,95623.06
2022-10-08T01:42:33.613Z,95618.00
2022-10-08T01:46:20.120Z,95614.97
2022-10-08T01:50:06.387Z,95619.22
2022-10-08T01:53:50.880Z,95614.97
2022-10-08T01:57:35.262Z,95611.50
2022-10-08T02:01:23.578Z,95620.84
2022-10-08T02:05:06.668Z,95623.06
2022-10-08T02:08:50.665Z,95616.38
2022-10-08T02:12:34.990Z,95618.19
2022-10-08T02:16:22.656Z,95612.13
2022-10-08T02:20:11.197Z,95612.13
2022-10-08T02:23:57.837Z,95598.75
2022-10-08T02:27:55.352Z,95592.69
2022-10-08T02:31:42.014Z,95606.84
2022-10-08T02:35:26.979Z,95600.78
2022-10-08T02:39:11.471Z,95610.09
2022-10-08T02:42:59.194Z,95605.63
2022-10-08T02:46:43.175Z,95603.19
2022-10-08T02:50:27.123Z,95604.00
2022-10-08T02:54:10.432Z,95601.78
2022-10-08T02:58:00.436Z,95612.53
2022-10-08T03:01:46.614Z,95608.47
2022-10-08T03:05:30.031Z,95609.09
2022-10-08T03:09:14.492Z,95606.84
2022-10-08T03:13:01.886Z,95614.56
2022-10-08T03:16:46.090Z,95605.44
2022-10-08T03:20:30.974Z,95607.28
2022-10-08T03:24:15.194Z,95597.53
2022-10-08T03:27:57.861Z,95602.00
2022-10-08T03:31:41.912Z,95603.81
2022-10-08T03:35:24.623Z,95606.88
2022-10-08T03:39:07.274Z,95611.31
2022-10-08T03:42:50.105Z,95605.66
2022-10-08T03:46:32.854Z,95608.28
2022-10-08T03:50:17.081Z,95610.53
2022-10-08T03:53:59.759Z,95602.63
2022-10-08T03:57:42.502Z,95602.44
2022-10-08T04:01:26.669Z,95606.50
2022-10-08T04:05:09.994Z,95609.34
2022-10-08T04:09:00.731Z,95603.25
2022-10-08T04:12:43.413Z,95612.34
2022-10-08T04:16:26.097Z,95617.00
2022-10-08T04:20:09.518Z,95612.53
2022-10-08T04:23:52.173Z,95604.44
2022-10-08T04:27:36.343Z,95609.28
2022-10-08T04:31:21.702Z,95604.44
2022-10-08T04:35:04.954Z,95614.38
2022-10-08T04:38:48.059Z,95602.00
2022-10-08T04:42:30.773Z,95605.25
2022-10-08T04:46:16.806Z,95625.09
2022-10-08T04:49:59.567Z,95620.25
2022-10-08T04:53:42.579Z,95621.06
2022-10-08T04:57:25.469Z,95623.47
2022-10-08T05:01:09.310Z,95616.22
2022-10-08T05:04:53.316Z,95629.19
2022-10-08T05:08:36.591Z,95630.59
2022-10-08T05:12:19.271Z,95627.16
2022-10-08T05:16:05.335Z,95635.47
2022-10-08T05:19:48.084Z,95624.91
2022-10-08T05:23:32.203Z,95628.75
2022-10-08T05:27:14.845Z,95623.47
2022-10-08T05:31:01.248Z,95627.75
2022-10-08T05:34:44.038Z,95632.00
2022-10-08T05:38:30.272Z,95640.94
2022-10-08T05:42:16.839Z,95644.19
2022-10-08T05:45:59.563Z,95641.75
2022-10-08T05:49:42.242Z,95638.50
2022-10-08T05:53:24.900Z,95638.50
2022-10-08T05:57:07.635Z,95648.44
2022-10-08T06:00:59.328Z,95649.47
2022-10-08T06:04:44.898Z,95652.72
2022-10-08T06:08:27.573Z,95652.72
2022-10-08T06:12:10.368Z,95660.63
2022-10-08T06:15:58.235Z,95656.34
2022-10-08T06:19:41.013Z,95666.88
2022-10-08T06:23:24.490Z,95662.00
2022-10-08T06:27:07.165Z,95670.09
2022-10-08T06:30:49.850Z,95668.44
2022-10-08T06:34:33.922Z,95679.38
2022-10-08T06:38:16.551Z,95675.28
2022-10-08T06:41:59.428Z,95678.50
2022-10-08T06:45:45.240Z,95682.13
2022-10-08T06:49:27.940Z,95685.72
2022-10-08T06:53:12.194Z,95687.88
2022-10-08T06:56:55.742Z,95687.16
2022-10-08T07:00:38.992Z,95689.88
2022-10-08T07:04:21.998Z,95701.16
2022-10-08T07:08:04.658Z,95692.91
2022-10-08T07:11:48.731Z,95707.84
2022-10-08T07:15:32.671Z,95712.41
2022-10-08T07:19:15.517Z,95709.69
2022-10-08T07:22:58.238Z,95723.41
2022-10-08T07:26:41.318Z,95725.91
2022-10-08T07:30:25.505Z,95733.56
2022-10-08T07:34:09.604Z,95739.69
2022-10-08T07:37:52.410Z,95731.38
2022-10-08T07:41:35.829Z,95738.59
2022-10-08T07:45:18.913Z,95728.84
2022-10-08T07:49:03.408Z,95741.66
2022-10-08T07:52:46.413Z,95739.28
2022-10-08T07:56:29.295Z,95744.13
2022-10-08T08:00:12.831Z,95744.88
2022-10-08T08:03:56.627Z,95746.66
2022-10-08T08:07:40.688Z,95741.50
2022-10-08T08:11:24.933Z,95741.72
2022-10-08T08:15:08.721Z,95750.63
2022-10-08T08:18:53.797Z,95757.34
2022-10-08T08:22:36.465Z,95747.94
2022-10-08T08:26:21.668Z,95745.88
2022-10-08T08:30:04.801Z,95756.88
2022-10-08T08:33:50.892Z,95750.53
2022-10-08T08:37:33.513Z,95756.09
2022-10-08T08:41:27.081Z,95753.69
2022-10-08T08:45:45.489Z,95753.44
2022-10-08T08:49:29.656Z,95756.56
2022-10-08T08:53:13.000Z,95760.16
2022-10-08T08:56:57.059Z,95760.44
2022-10-08T09:00:42.013Z,95755.91
2022-10-08T09:04:27.995Z,95764.22
2022-10-08T09:08:15.499Z,95761.53
2022-10-08T09:11:59.538Z,95762.56
2022-10-08T09:15:43.172Z,95767.03
2022-10-08T09:19:26.128Z,95764.38
2022-10-08T09:23:14.829Z,95771.00
2022-10-08T09:26:59.215Z,95760.22
2022-10-08T09:30:45.040Z,95769.47
2022-10-08T09:34:28.258Z,95765.53
2022-10-08T09:38:20.265Z,95763.00
2022-10-08T09:42:14.831Z,95763.00
2022-10-08T09:45:58.007Z,95769.59
2022-10-08T09:49:40.828Z,95757.81
2022-10-08T09:53:26.299Z,95757.25
2022-10-08T09:57:09.442Z,95756.56
2022-10-08T10:01:03.748Z,95760.00
2022-10-08T10:04:46.579Z,95763.00
2022-10-08T10:08:48.443Z,95766.44
2022-10-08T10:12:33.317Z,95763.22
2022-10-08T10:16:21.317Z,95772.09
2022-10-08T10:20:06.938Z,95771.56
2022-10-08T10:23:52.148Z,95767.84
2022-10-08T10:27:37.321Z,95761.72
2022-10-08T10:31:24.569Z,95761.16
2022-10-08T10:35:14.659Z,95761.63
2022-10-08T10:39:05.769Z,95766.03
2022-10-08T10:42:55.959Z,95762.47
2022-10-08T10:46:42.971Z,95759.13
2022-10-08T10:50:28.238Z,95759.47
2022-10-08T10:54:22.369Z,95763.06
2022-10-08T10:58:16.091Z,95746.44
2022-10-08T11:02:10.328Z,95750.81
2022-10-08T11:05:57.563Z,95744.84
2022-10-08T11:09:44.915Z,95740.44
2022-10-08T11:13:38.072Z,95739.63
2022-10-08T11:17:39.357Z,95739.84
2022-10-08T11:21:31.828Z,95745.38
2022-10-08T11:25:31.735Z,95745.84
2022-10-08T11:29:21.071Z,95738.22
2022-10-08T11:33:05.752Z,95736.97
2022-10-08T11:36:53.646Z,95731.19
2022-10-08T11:40:38.507Z,95726.34
2022-10-08T11:44:22.178Z,95736.00
2022-10-08T11:48:34.620Z,95736.25
2022-10-08T11:52:18.665Z,95738.56
2022-10-08T11:56:01.931Z,95742.69
2022-10-08T11:59:45.241Z,95736.69
2022-10-08T12:03:30.293Z,95735.53
2022-10-08T12:07:28.852Z,95731.75
2022-10-08T12:11:49.095Z,95736.94
2022-10-08T12:16:06.929Z,95726.19
2022-10-08T12:20:21.332Z,95730.25
2022-10-08T12:24:50.484Z,95720.44
2022-10-08T12:28:54.609Z,95730.13
2022-10-08T12:32:55.426Z,95724.25
2022-10-08T12:37:16.317Z,95716.16
2022-10-08T12:41:17.566Z,95720.66
2022-10-08T12:45:07.696Z,95712.69
2022-10-08T12:48:52.929Z,95712.22
2022-10-08T12:52:36.334Z,95710.16
2022-10-08T12:56:26.125Z,95723.53
2022-10-08T13:00:10.951Z,95714.06
2022-10-08T13:04:17.312Z,95708.06
2022-10-08T13:08:01.631Z,95708.19
2022-10-08T13:11:53.726Z,95716.16
2022-10-08T13:15:38.376Z,95723.53
2022-10-08T13:19:28.543Z,95729.53
2022-10-08T13:23:25.501Z,95728.16
2022-10-08T13:27:22.445Z,95723.38
2022-10-08T13:31:21.659Z,95726.91
2022-10-08T13:35:05.660Z,95730.81
2022-10-08T13:38:48.427Z,95725.78
2022-10-08T13:42:34.643Z,95725.31
2022-10-08T13:46:17.453Z,95727.06
2022-10-08T13:50:02.110Z,95729.72
2022-10-08T13:53:45.764Z,95717.22
2022-10-08T13:57:28.684Z,95724.13
2022-10-08T14:01:12.878Z,95730.47
2022-10-08T14:04:55.613Z,95726.88
2022-10-08T14:08:38.451Z,95727.44
2022-10-08T14:12:27.432Z,95727.31
2022-10-08T14:16:12.472Z,95725.00
2022-10-08T14:19:55.478Z,95730.31
2022-10-08T14:23:39.092Z,95740.31
2022-10-08T14:27:21.806Z,95741.81
2022-10-08T14:31:04.585Z,95744.44
2022-10-08T14:34:48.664Z,95755.22
2022-10-08T14:38:33.607Z,95747.13
2022-10-08T14:42:16.282Z,95749.28
2022-10-08T14:45:59.684Z,95744.03
2022-10-08T14:49:42.399Z,95751.41
2022-10-08T14:53:26.725Z,95748.00
2022-10-08T14:57:10.572Z,95753.59
2022-10-08T15:00:54.361Z,95744.16
2022-10-08T15:04:37.066Z,95750.84
2022-10-08T15:08:19.899Z,95751.56
2022-10-08T15:12:04.180Z,95766.88
2022-10-08T15:15:47.016Z,95779.69
2022-10-08T15:19:29.855Z,95784.28
2022-10-08T15:23:12.681Z,95775.44
2022-10-08T15:26:58.343Z,95765.66
2022-10-08T15:30:43.476Z,95762.53
2022-10-08T15:34:26.332Z,95764.91
2022-10-08T15:38:09.242Z,95777.69
2022-10-08T15:41:53.155Z,95778.88
2022-10-08T15:45:43.883Z,95780.13
2022-10-08T15:49:31.102Z,95782.66
2022-10-08T15:53:14.084Z,95783.97
2022-10-08T15:56:59.797Z,95783.97
2022-10-08T16:00:43.944Z,95788.50
2022-10-08T16:04:26.973Z,95790.09
2022-10-08T16:08:10.111Z,95796.28
2022-10-08T16:11:53.201Z,95806.72
2022-10-08T16:15:38.738Z,95802.69
2022-10-08T16:19:24.657Z,95803.72
2022-10-08T16:23:08.050Z,95809.78
2022-10-08T16:26:50.840Z,95816.84
2022-10-08T16:30:35.898Z,95823.97
2022-10-08T16:34:20.517Z,95831.31
2022-10-08T16:38:04.819Z,95835.56
2022-10-08T16:41:48.286Z,95842.28
2022-10-08T16:45:31.031Z,95839.41
2022-10-08T16:49:22.786Z,95841.47
2022-10-08T16:53:09.446Z,95843.50
2022-10-08T16:56:52.638Z,95863.25
2022-10-08T17:00:38.049Z,95869.94
2022-10-08T17:04:21.867Z,95875.66
2022-10-08T17:08:04.708Z,95874.84
2022-10-08T17:11:48.900Z,95888.28
2022-10-08T17:15:31.668Z,95886.63
2022-10-08T17:19:14.545Z,95894.78
2022-10-08T17:23:09.938Z,95899.66
2022-10-08T17:26:54.096Z,95914.31
2022-10-08T17:30:37.661Z,95914.34
2022-10-08T17:34:20.384Z,95921.47
2022-10-08T17:38:20.792Z,95918.88
2022-10-08T17:42:07.175Z,95924.59
2022-10-08T17:45:50.387Z,95925.81
2022-10-08T17:49:33.372Z,95925.03
2022-10-08T17:53:17.854Z,95934.56
2022-10-08T17:57:00.626Z,95937.22
2022-10-08T18:00:44.784Z,95952.25
2022-10-08T18:04:27.488Z,95952.25
2022-10-08T18:08:27.713Z,95957.53
2022-10-08T18:12:10.439Z,95957.94
2022-10-08T18:15:54.666Z,95949.19
2022-10-08T18:19:37.503Z,95972.56
2022-10-08T18:23:39.105Z,95966.84
2022-10-08T18:27:21.837Z,95973.75
2022-10-08T18:31:07.160Z,95975.38
2022-10-08T18:34:51.004Z,95971.94
2022-10-08T18:38:44.705Z,95984.72
2022-10-08T18:42:27.401Z,95992.25
2022-10-08T18:46:11.629Z,95996.13
2022-10-08T18:49:54.480Z,95996.53
2022-10-08T18:53:54.301Z,95992.06
2022-10-08T18:57:37.055Z,96014.44
2022-10-08T19:01:23.149Z,96019.31
2022-10-08T19:05:06.800Z,96021.75
2022-10-08T19:09:05.497Z,96014.44
2022-10-08T19:12:48.429Z,96022.56
2022-10-08T19:16:32.832Z,96039.63
2022-10-08T19:20:15.727Z,96042.69
2022-10-08T19:24:02.144Z,96038.03
2022-10-08T19:27:44.840Z,96055.47
2022-10-08T19:31:30.915Z,96051.81
2022-10-08T19:35:15.299Z,96061.75
2022-10-08T19:39:15.887Z,96072.13
2022-10-08T19:42:58.602Z,96069.25
2022-10-08T19:46:41.660Z,96077.97
2022-10-08T19:50:25.853Z,96073.75
2022-10-08T19:54:16.939Z,96084.69
2022-10-08T19:57:59.585Z,96087.16
2022-10-08T20:01:43.556Z,96086.94
2022-10-08T20:05:27.822Z,96091.22
2022-10-08T20:09:25.107Z,96097.31
2022-10-08T20:13:08.123Z,96101.16
2022-10-08T20:16:50.892Z,96103.16
2022-10-08T20:20:35.043Z,96108.63
2022-10-08T20:24:35.614Z,96106.19
2022-10-08T20:28:18.384Z,96114.09
2022-10-08T20:32:01.558Z,96115.53
2022-10-08T20:35:45.589Z,96120.59
2022-10-08T20:39:48.127Z,96125.25
2022-10-08T20:43:31.858Z,96124.03
2022-10-08T20:47:17.703Z,96130.50
2022-10-08T20:51:04.557Z,96133.75
2022-10-08T20:54:47.374Z,96137.59
2022-10-08T20:58:31.091Z,96136.16
2022-10-08T21:02:18.915Z,96130.22
2022-10-08T21:06:05.954Z,96137.31
2022-10-08T21:09:57.728Z,96132.44
2022-10-08T21:13:40.972Z,96142.13
2022-10-08T21:17:23.698Z,96140.13
2022-10-08T21:21:09.773Z,96136.81
2022-10-08T21:24:52.521Z,96146.56
2022-10-08T21:28:36.042Z,96156.69
2022-10-08T21:32:19.209Z,96147.56
2022-10-08T21:36:02.118Z,96148.63
2022-10-08T21:39:59.037Z,96155.94
2022-10-08T21:43:43.290Z,96158.78
2022-10-08T21:47:26.310Z,96152.66
2022-10-08T21:51:14.999Z,96145.34
2022-10-08T21:55:13.362Z,96156.69
2022-10-08T21:58:58.155Z,96157.09
2022-10-08T22:02:40.893Z,96157.75
2022-10-08T22:06:24.580Z,96160.84
2022-10-08T22:10:26.238Z,96166.97
2022-10-08T22:14:09.718Z,96151.31
2022-10-08T22:17:52.463Z,96163.69
2022-10-08T22:21:35.755Z,96163.69
2022-10-08T22:25:18.474Z,96156.56
2022-10-08T22:29:02.775Z,96157.56
2022-10-08T22:32:45.852Z,96151.28
2022-10-08T22:36:29.856Z,96149.63
2022-10-08T22:40:31.259Z,96143.69
2022-10-08T22:44:15.378Z,96142.50
2022-10-08T22:47:58.811Z,96145.56
2022-10-08T22:51:41.731Z,96148.63
2022-10-08T22:55:43.427Z,96147.81
2022-10-08T22:59:27.558Z,96150.25
2022-10-08T23:03:10.256Z,96147.81
2022-10-08T23:06:52.992Z,96146.97
2022-10-08T23:10:44.980Z,96140.06
2022-10-08T23:14:29.033Z,96137.22
2022-10-08T23:18:11.737Z,96135.16
2022-10-08T23:21:54.529Z,96130.69
2022-10-08T23:25:40.556Z,96131.22
2022-10-08T23:29:23.283Z,96126.53
2022-10-08T23:33:07.402Z,96137.47
2022-10-08T23:36:50.120Z,96125.84
2022-10-08T23:40:58.722Z,96124.97
2022-10-08T23:44:41.437Z,96131.66
2022-10-08T23:48:27.914Z,96125.75
2022-10-08T23:52:13.725Z,96131.59
2022-10-08T23:56:06.045Z,96132.56
2022-10-08T23:59:49.344Z,96143.22
